createdAt,value
2022-10-10T00:00:35.742Z,301.30
2022-10-10T00:03:25.455Z,303.08
2022-10-10T00:06:14.605Z,305.25
2022-10-10T00:09:02.950Z,301.70
2022-10-10T00:11:50.891Z,310.52
2022-10-10T00:14:38.801Z,298.30
2022-10-10T00:17:26.738Z,285.40
2022-10-10T00:20:18.560Z,289.60
2022-10-10T00:23:06.486Z,301.75
2022-10-10T00:25:54.508Z,288.53
2022-10-10T00:28:42.564Z,295.70
2022-10-10T00:31:30.821Z,276.63
2022-10-10T00:34:18.901Z,279.73
2022-10-10T00:37:08.213Z,283.93
2022-10-10T00:39:56.210Z,277.60
2022-10-10T00:42:44.162Z,273.97
2022-10-10T00:45:38.671Z,268.47
2022-10-10T00:48:31.176Z,250.10
2022-10-10T00:51:20.452Z,240.83
2022-10-10T00:54:13.112Z,255.20
2022-10-10T00:57:05.439Z,241.03
2022-10-10T00:59:54.277Z,225.77
2022-10-10T01:02:42.305Z,248.80
2022-10-10T01:05:30.724Z,237.63
2022-10-10T01:08:19.960Z,232.57
2022-10-10T01:11:25.112Z,234.27
2022-10-10T01:14:24.971Z,222.13
2022-10-10T01:17:21.491Z,216.13
2022-10-10T01:20:42.070Z,206.60
2022-10-10T01:24:03.577Z,222.57
2022-10-10T01:27:09.274Z,234.10
2022-10-10T01:30:02.836Z,214.47
2022-10-10T01:32:54.340Z,224.70
2022-10-10T01:35:51.589Z,205.70
2022-10-10T01:38:44.165Z,219.17
2022-10-10T01:41:36.885Z,211.43
2022-10-10T01:44:24.867Z,215.73
2022-10-10T01:47:14.666Z,224.03
2022-10-10T01:50:05.593Z,223.83
2022-10-10T01:53:03.426Z,218.57
2022-10-10T01:55:57.288Z,222.87
2022-10-10T01:59:04.327Z,221.67
2022-10-10T02:01:56.157Z,217.03
2022-10-10T02:04:50.437Z,213.73
2022-10-10T02:07:42.997Z,198.83
2022-10-10T02:10:34.593Z,218.90
2022-10-10T02:13:24.150Z,215.60
2022-10-10T02:16:17.023Z,221.17
2022-10-10T02:19:09.312Z,231.70
2022-10-10T02:21:59.562Z,229.37
2022-10-10T02:24:47.465Z,235.97
2022-10-10T02:27:40.648Z,237.10
2022-10-10T02:30:29.295Z,224.73
2022-10-10T02:33:21.102Z,228.73
2022-10-10T02:36:10.201Z,215.83
2022-10-10T02:39:00.824Z,224.67
2022-10-10T02:41:51.787Z,233.43
2022-10-10T02:44:40.681Z,220.50
2022-10-10T02:47:28.589Z,237.07
2022-10-10T02:50:16.482Z,214.77
2022-10-10T02:53:04.346Z,259.43
2022-10-10T02:55:53.579Z,224.40
2022-10-10T02:58:41.446Z,244.27
2022-10-10T03:01:29.327Z,261.30
2022-10-10T03:04:17.325Z,245.60
2022-10-10T03:07:05.733Z,233.13
2022-10-10T03:09:53.694Z,241.47
2022-10-10T03:12:42.973Z,244.70
2022-10-10T03:15:30.844Z,253.73
2022-10-10T03:18:18.997Z,245.90
2022-10-10T03:21:07.044Z,229.27
2022-10-10T03:23:54.916Z,235.03
2022-10-10T03:26:42.771Z,242.33
2022-10-10T03:29:32.072Z,237.03
2022-10-10T03:32:19.966Z,237.37
2022-10-10T03:35:08.388Z,236.53
2022-10-10T03:37:57.150Z,245.70
2022-10-10T03:40:46.034Z,244.10
2022-10-10T03:43:33.922Z,254.37
2022-10-10T03:46:23.169Z,252.47
2022-10-10T03:49:11.681Z,267.03
2022-10-10T03:52:00.483Z,240.93
2022-10-10T03:54:48.353Z,247.33
2022-10-10T03:57:36.251Z,255.13
2022-10-10T04:00:24.121Z,245.80
2022-10-10T04:03:13.287Z,246.17
2022-10-10T04:06:01.265Z,237.00
2022-10-10T04:08:49.164Z,241.47
2022-10-10T04:11:38.537Z,246.47
2022-10-10T04:14:26.739Z,250.67
2022-10-10T04:17:14.980Z,231.87
2022-10-10T04:20:04.667Z,245.57
2022-10-10T04:22:52.933Z,250.50
2022-10-10T04:25:41.764Z,249.93
2022-10-10T04:28:30.756Z,245.07
2022-10-10T04:31:18.678Z,253.30
2022-10-10T04:34:06.645Z,251.90
2022-10-10T04:36:55.913Z,265.43
2022-10-10T04:39:43.773Z,260.13
2022-10-10T04:42:31.971Z,234.87
2022-10-10T04:45:19.913Z,246.13
2022-10-10T04:48:07.764Z,248.20
2022-10-10T04:50:57.373Z,250.40
2022-10-10T04:53:50.308Z,258.40
2022-10-10T04:56:38.611Z,228.07
2022-10-10T04:59:26.714Z,218.87
2022-10-10T05:02:14.802Z,232.33
2022-10-10T05:05:03.176Z,211.60
2022-10-10T05:07:55.273Z,230.80
2022-10-10T05:10:47.140Z,214.37
2022-10-10T05:13:35.018Z,237.03
2022-10-10T05:16:23.077Z,234.77
2022-10-10T05:19:10.995Z,251.60
2022-10-10T05:21:58.908Z,248.73
2022-10-10T05:24:46.745Z,234.73
2022-10-10T05:27:35.997Z,244.43
2022-10-10T05:30:23.899Z,232.57
2022-10-10T05:33:12.196Z,243.93
2022-10-10T05:36:05.007Z,234.30
2022-10-10T05:38:53.040Z,224.50
2022-10-10T05:41:40.924Z,243.90
2022-10-10T05:44:31.849Z,241.07
2022-10-10T05:47:23.097Z,247.80
2022-10-10T05:50:27.149Z,244.70
2022-10-10T05:53:15.195Z,241.13
2022-10-10T05:56:03.086Z,245.23
2022-10-10T05:58:51.314Z,237.57
2022-10-10T06:01:40.593Z,235.03
2022-10-10T06:04:08.494Z,252.67
2022-10-10T06:06:36.385Z,250.40
2022-10-10T06:09:04.853Z,265.53
2022-10-10T06:11:32.566Z,261.17
2022-10-10T06:14:00.255Z,253.23
2022-10-10T06:16:28.664Z,248.93
2022-10-10T06:18:58.017Z,255.43
2022-10-10T06:21:26.545Z,262.27
2022-10-10T06:23:54.207Z,257.27
2022-10-10T06:26:21.871Z,282.57
2022-10-10T06:28:50.730Z,278.27
2022-10-10T06:31:18.426Z,280.27
2022-10-10T06:33:47.981Z,291.53
2022-10-10T06:36:18.064Z,283.17
2022-10-10T06:38:46.715Z,272.17
2022-10-10T06:41:14.605Z,309.57
2022-10-10T06:43:42.448Z,302.03
2022-10-10T06:46:11.626Z,315.17
2022-10-10T06:48:39.273Z,312.00
2022-10-10T06:51:09.349Z,316.45
2022-10-10T06:53:38.354Z,299.80
2022-10-10T06:56:06.386Z,302.33
2022-10-10T06:58:35.007Z,287.67
2022-10-10T07:01:05.151Z,321.05
2022-10-10T07:03:32.773Z,302.75
2022-10-10T07:06:01.961Z,321.90
2022-10-10T07:08:32.782Z,293.42
2022-10-10T07:11:02.063Z,291.88
2022-10-10T07:13:29.711Z,310.67
2022-10-10T07:15:57.676Z,291.35
2022-10-10T07:18:25.281Z,289.48
2022-10-10T07:20:57.206Z,297.35
2022-10-10T07:23:25.282Z,314.50
2022-10-10T07:25:53.491Z,315.33
2022-10-10T07:28:22.483Z,317.15
2022-10-10T07:30:50.240Z,310.77
2022-10-10T07:33:17.839Z,329.35
2022-10-10T07:35:53.933Z,320.20
2022-10-10T07:38:21.628Z,319.13
2022-10-10T07:40:49.308Z,322.33
2022-10-10T07:43:16.905Z,319.15
2022-10-10T07:45:45.922Z,321.30
2022-10-10T07:48:13.512Z,297.65
2022-10-10T07:50:42.404Z,316.95
2022-10-10T07:53:10.170Z,296.60
2022-10-10T07:55:39.769Z,338.25
2022-10-10T07:58:08.068Z,314.52
2022-10-10T08:00:36.474Z,329.02
2022-10-10T08:03:09.647Z,309.02
2022-10-10T08:05:41.090Z,329.45
2022-10-10T08:08:09.039Z,332.45
2022-10-10T08:10:36.772Z,359.85
2022-10-10T08:13:04.964Z,347.20
2022-10-10T08:15:34.035Z,379.95
2022-10-10T08:18:01.922Z,359.88
2022-10-10T08:20:30.917Z,356.10
2022-10-10T08:22:58.893Z,364.63
2022-10-10T08:25:26.565Z,360.60
2022-10-10T08:27:54.174Z,362.70
2022-10-10T08:30:21.897Z,388.30
2022-10-10T08:32:49.891Z,379.95
2022-10-10T08:35:17.891Z,363.67
2022-10-10T08:37:46.912Z,377.38
2022-10-10T08:40:17.257Z,377.95
2022-10-10T08:42:52.828Z,361.23
2022-10-10T08:45:25.177Z,343.58
2022-10-10T08:47:56.475Z,388.75
2022-10-10T08:50:28.476Z,379.50
2022-10-10T08:53:01.002Z,380.17
2022-10-10T08:55:33.538Z,380.55
2022-10-10T08:58:07.779Z,388.30
2022-10-10T09:00:40.757Z,367.98
2022-10-10T09:03:19.516Z,391.77
2022-10-10T09:06:01.013Z,393.60
2022-10-10T09:08:44.113Z,406.35
2022-10-10T09:11:23.158Z,388.38
2022-10-10T09:14:04.840Z,431.25
2022-10-10T09:16:41.120Z,410.38
2022-10-10T09:19:24.523Z,404.65
2022-10-10T09:21:54.256Z,435.58
2022-10-10T09:24:27.481Z,415.20
2022-10-10T09:27:01.212Z,434.13
2022-10-10T09:29:35.140Z,439.27
2022-10-10T09:32:10.068Z,444.23
2022-10-10T09:34:42.485Z,445.00
2022-10-10T09:37:24.232Z,445.05
2022-10-10T09:40:13.068Z,439.35
2022-10-10T09:42:40.998Z,442.63
2022-10-10T09:45:16.952Z,431.52
2022-10-10T09:47:44.616Z,452.70
2022-10-10T09:50:14.486Z,452.33
2022-10-10T09:52:43.272Z,445.63
2022-10-10T09:55:24.532Z,459.10
2022-10-10T09:57:54.194Z,449.58
2022-10-10T10:00:35.894Z,445.15
2022-10-10T10:03:15.881Z,445.90
2022-10-10T10:05:47.158Z,425.95
2022-10-10T10:08:25.758Z,426.38
2022-10-10T10:10:58.182Z,439.92
2022-10-10T10:13:29.614Z,430.60
2022-10-10T10:16:09.979Z,424.60
2022-10-10T10:18:43.219Z,418.55
2022-10-10T10:21:23.602Z,422.73
2022-10-10T10:23:54.900Z,411.95
2022-10-10T10:26:27.283Z,436.85
2022-10-10T10:28:57.591Z,430.40
2022-10-10T10:31:52.266Z,445.95
2022-10-10T10:34:39.367Z,423.45
2022-10-10T10:37:17.691Z,419.58
2022-10-10T10:40:10.129Z,445.92
2022-10-10T10:42:54.366Z,416.77
2022-10-10T10:45:26.179Z,409.33
2022-10-10T10:48:02.394Z,412.33
2022-10-10T10:50:44.656Z,433.20
2022-10-10T10:53:20.910Z,443.38
2022-10-10T10:55:53.634Z,445.42
2022-10-10T10:59:10.386Z,450.08
2022-10-10T11:01:51.885Z,417.48
2022-10-10T11:05:22.207Z,414.58
2022-10-10T11:07:24.379Z,420.52
2022-10-10T11:09:57.639Z,420.20
2022-10-10T11:12:39.112Z,445.92
2022-10-10T11:15:15.521Z,425.73
2022-10-10T11:17:48.796Z,446.45
2022-10-10T11:20:25.099Z,429.70
2022-10-10T11:22:57.467Z,433.77
2022-10-10T11:25:30.581Z,429.70
2022-10-10T11:28:04.596Z,403.63
2022-10-10T11:30:36.972Z,419.80
2022-10-10T11:33:12.181Z,438.45
2022-10-10T11:35:45.376Z,434.35
2022-10-10T11:38:21.479Z,431.48
2022-10-10T11:40:54.848Z,428.35
2022-10-10T11:43:30.881Z,409.67
2022-10-10T11:46:06.393Z,430.95
2022-10-10T11:48:42.878Z,412.40
2022-10-10T11:51:21.973Z,400.52
2022-10-10T11:53:52.882Z,417.48
2022-10-10T11:56:30.483Z,385.05
2022-10-10T11:59:05.381Z,397.88
2022-10-10T12:01:38.900Z,406.20
2022-10-10T12:04:06.537Z,399.45
2022-10-10T12:06:39.527Z,399.42
2022-10-10T12:09:13.285Z,380.45
2022-10-10T12:11:46.202Z,390.15
2022-10-10T12:14:17.976Z,388.08
2022-10-10T12:16:47.691Z,372.50
2022-10-10T12:19:19.402Z,395.30
2022-10-10T12:21:56.132Z,372.45
2022-10-10T12:24:24.695Z,376.95
2022-10-10T12:27:29.196Z,365.15
2022-10-10T12:30:27.360Z,343.05
2022-10-10T12:32:56.781Z,338.23
2022-10-10T12:35:34.558Z,355.50
2022-10-10T12:38:11.411Z,327.83
2022-10-10T12:41:08.013Z,343.08
2022-10-10T12:43:51.077Z,322.63
2022-10-10T12:46:23.404Z,319.25
2022-10-10T12:49:16.623Z,326.88
2022-10-10T12:51:45.712Z,340.15
2022-10-10T12:54:25.387Z,324.08
2022-10-10T12:57:00.738Z,335.95
2022-10-10T12:59:28.624Z,318.15
2022-10-10T13:01:59.256Z,334.70
2022-10-10T13:04:29.147Z,317.38
2022-10-10T13:06:59.067Z,295.42
2022-10-10T13:09:32.475Z,296.67
2022-10-10T13:12:05.093Z,310.88
2022-10-10T13:14:40.429Z,293.35
2022-10-10T13:17:22.529Z,296.67
2022-10-10T13:19:52.014Z,294.38
2022-10-10T13:22:21.042Z,300.52
2022-10-10T13:24:50.077Z,316.60
2022-10-10T13:27:21.367Z,312.13
2022-10-10T13:29:49.483Z,333.15
2022-10-10T13:32:21.005Z,309.35
2022-10-10T13:34:54.117Z,315.95
2022-10-10T13:37:22.443Z,314.38
2022-10-10T13:39:51.910Z,325.73
2022-10-10T13:42:29.526Z,296.20
2022-10-10T13:45:00.064Z,304.58
2022-10-10T13:47:53.345Z,297.67
2022-10-10T13:50:26.474Z,303.65
2022-10-10T13:53:32.225Z,294.10
2022-10-10T13:56:05.333Z,298.23
2022-10-10T13:58:39.488Z,317.15
2022-10-10T14:01:07.523Z,303.90
2022-10-10T14:03:35.314Z,294.42
2022-10-10T14:06:04.521Z,321.95
2022-10-10T14:08:34.501Z,318.92
2022-10-10T14:11:06.232Z,292.42
2022-10-10T14:13:37.998Z,292.88
2022-10-10T14:16:13.740Z,309.15
2022-10-10T14:18:41.349Z,324.52
2022-10-10T14:21:10.797Z,303.08
2022-10-10T14:23:39.024Z,307.40
2022-10-10T14:26:08.808Z,298.00
2022-10-10T14:28:39.696Z,301.67
2022-10-10T14:31:08.039Z,299.65
2022-10-10T14:33:35.894Z,290.20
2022-10-10T14:36:04.269Z,307.75
2022-10-10T14:38:33.675Z,303.10
2022-10-10T14:41:02.033Z,294.17
2022-10-10T14:43:30.089Z,311.20
2022-10-10T14:45:57.802Z,310.52
2022-10-10T14:48:25.404Z,310.05
2022-10-10T14:50:53.061Z,307.80
2022-10-10T14:53:20.836Z,311.63
2022-10-10T14:55:53.931Z,314.33
2022-10-10T14:58:24.105Z,301.50
2022-10-10T15:00:52.834Z,299.13
2022-10-10T15:03:20.741Z,315.63
2022-10-10T15:05:48.724Z,308.27
2022-10-10T15:08:18.474Z,306.83
2022-10-10T15:10:46.055Z,298.13
2022-10-10T15:13:16.707Z,307.27
2022-10-10T15:15:44.378Z,339.08
2022-10-10T15:18:39.596Z,326.92
2022-10-10T15:21:01.059Z,309.55
2022-10-10T15:23:28.878Z,318.77
2022-10-10T15:26:00.157Z,300.75
2022-10-10T15:28:29.144Z,300.35
2022-10-10T15:30:56.745Z,326.08
2022-10-10T15:33:24.421Z,333.45
2022-10-10T15:36:08.969Z,331.35
2022-10-10T15:38:38.263Z,323.23
2022-10-10T15:41:07.549Z,348.73
2022-10-10T15:43:44.458Z,341.75
2022-10-10T15:46:12.091Z,377.48
2022-10-10T15:48:39.734Z,395.45
2022-10-10T15:51:08.752Z,375.42
2022-10-10T15:53:37.109Z,400.55
2022-10-10T15:56:10.220Z,398.75
2022-10-10T15:58:40.661Z,398.73
2022-10-10T16:01:12.745Z,380.70
2022-10-10T16:03:40.469Z,422.08
2022-10-10T16:06:08.833Z,437.38
2022-10-10T16:08:37.350Z,438.98
2022-10-10T16:11:06.789Z,436.20
2022-10-10T16:13:36.050Z,469.88
2022-10-10T16:16:07.113Z,454.08
2022-10-10T16:18:40.026Z,470.85
2022-10-10T16:21:09.539Z,460.75
2022-10-10T16:23:38.045Z,455.60
2022-10-10T16:26:07.559Z,471.85
2022-10-10T16:28:35.851Z,458.02
2022-10-10T16:31:05.892Z,477.13
2022-10-10T16:33:34.054Z,471.35
2022-10-10T16:36:02.117Z,474.38
2022-10-10T16:38:29.717Z,472.30
2022-10-10T16:40:58.692Z,489.48
2022-10-10T16:43:26.406Z,477.92
2022-10-10T16:45:54.031Z,487.90
2022-10-10T16:48:22.943Z,472.80
2022-10-10T16:50:50.678Z,490.65
2022-10-10T16:53:18.295Z,493.25
2022-10-10T16:55:46.268Z,479.15
2022-10-10T16:58:13.918Z,492.08
2022-10-10T17:00:43.171Z,499.10
2022-10-10T17:03:10.805Z,493.25
2022-10-10T17:05:39.839Z,489.10
2022-10-10T17:08:07.379Z,499.33
2022-10-10T17:10:34.957Z,480.92
2022-10-10T17:13:02.746Z,494.02
2022-10-10T17:15:30.434Z,463.83
2022-10-10T17:17:58.006Z,474.05
2022-10-10T17:20:25.619Z,486.83
2022-10-10T17:22:54.571Z,475.27
2022-10-10T17:25:22.127Z,488.25
2022-10-10T17:27:49.725Z,511.10
2022-10-10T17:30:17.564Z,496.02
2022-10-10T17:32:45.143Z,486.83
2022-10-10T17:35:13.186Z,482.17
2022-10-10T17:37:40.785Z,487.85
2022-10-10T17:40:10.661Z,494.33
2022-10-10T17:42:38.305Z,488.30
2022-10-10T17:45:06.630Z,492.25
2022-10-10T17:47:34.663Z,458.27
2022-10-10T17:50:02.308Z,470.55
2022-10-10T17:52:29.904Z,464.45
2022-10-10T17:54:57.467Z,466.73
2022-10-10T17:57:26.455Z,468.83
2022-10-10T18:02:50.139Z,483.13
2022-10-10T18:05:38.356Z,500.52
2022-10-10T18:08:26.766Z,502.95
2022-10-10T18:11:16.703Z,480.90
2022-10-10T18:14:05.945Z,491.98
2022-10-10T18:16:53.876Z,483.48
2022-10-10T18:19:41.798Z,467.77
2022-10-10T18:22:29.728Z,464.73
2022-10-10T18:25:20.626Z,477.33
2022-10-10T18:28:10.839Z,450.00
2022-10-10T18:31:00.698Z,459.08
2022-10-10T18:33:49.236Z,422.98
2022-10-10T18:36:38.616Z,431.60
2022-10-10T18:39:32.192Z,454.98
2022-10-10T18:42:21.064Z,449.65
2022-10-10T18:45:09.366Z,452.88
2022-10-10T18:47:58.637Z,477.02
2022-10-10T18:50:46.566Z,457.10
2022-10-10T18:53:37.124Z,494.45
2022-10-10T18:56:25.181Z,482.42
2022-10-10T18:59:15.127Z,463.00
2022-10-10T19:02:03.036Z,465.58
2022-10-10T19:04:52.250Z,465.75
2022-10-10T19:07:40.145Z,469.38
2022-10-10T19:10:28.084Z,470.23
2022-10-10T19:13:17.016Z,459.00
2022-10-10T19:16:05.682Z,496.02
2022-10-10T19:18:58.043Z,475.40
2022-10-10T19:21:48.928Z,481.65
2022-10-10T19:24:36.859Z,483.95
2022-10-10T19:27:24.774Z,474.02
2022-10-10T19:30:13.994Z,473.23
2022-10-10T19:33:01.918Z,475.45
2022-10-10T19:35:52.226Z,480.80
2022-10-10T19:38:43.116Z,475.23
2022-10-10T19:41:31.211Z,496.23
2022-10-10T19:44:19.135Z,471.05
2022-10-10T19:47:07.037Z,456.42
2022-10-10T19:49:54.944Z,481.35
2022-10-10T19:52:42.927Z,482.35
2022-10-10T19:55:32.421Z,471.17
2022-10-10T19:58:20.328Z,482.92
2022-10-10T20:01:09.444Z,496.05
2022-10-10T20:03:57.972Z,462.23
2022-10-10T20:06:45.917Z,475.38
2022-10-10T20:09:33.830Z,464.02
2022-10-10T20:12:23.269Z,482.17
2022-10-10T20:15:12.341Z,475.00
2022-10-10T20:18:00.271Z,494.05
2022-10-10T20:20:51.099Z,435.60
2022-10-10T20:23:39.063Z,480.40
2022-10-10T20:26:27.345Z,472.00
2022-10-10T20:29:16.583Z,466.77
2022-10-10T20:32:04.599Z,453.77
2022-10-10T20:34:53.577Z,475.00
2022-10-10T20:37:41.482Z,492.90
2022-10-10T20:40:29.419Z,466.05
2022-10-10T20:43:17.575Z,446.48
2022-10-10T20:46:09.200Z,446.70
2022-10-10T20:48:57.904Z,442.35
2022-10-10T20:51:48.664Z,470.48
2022-10-10T20:54:37.124Z,470.15
2022-10-10T20:57:25.138Z,455.30
2022-10-10T21:00:14.269Z,465.70
2022-10-10T21:03:03.506Z,489.92
2022-10-10T21:06:02.439Z,460.83
2022-10-10T21:08:51.074Z,463.85
2022-10-10T21:11:39.975Z,472.13
2022-10-10T21:14:28.183Z,480.77
2022-10-10T21:17:16.110Z,468.80
2022-10-10T21:20:06.254Z,472.33
2022-10-10T21:22:55.602Z,481.52
2022-10-10T21:25:44.651Z,458.05
2022-10-10T21:28:32.630Z,458.80
2022-10-10T21:31:22.691Z,476.40
2022-10-10T21:34:15.601Z,472.90
2022-10-10T21:37:04.949Z,450.48
2022-10-10T21:39:52.865Z,444.13
2022-10-10T21:42:41.064Z,456.30
2022-10-10T21:45:28.984Z,476.88
2022-10-10T21:48:16.918Z,440.38
2022-10-10T21:51:05.723Z,470.52
2022-10-10T21:53:55.872Z,453.92
2022-10-10T21:56:43.844Z,467.45
2022-10-10T21:59:32.484Z,499.50
2022-10-10T22:02:20.385Z,499.23
2022-10-10T22:05:11.138Z,462.80
2022-10-10T22:07:59.017Z,461.50
2022-10-10T22:10:48.247Z,463.10
2022-10-10T22:13:36.611Z,495.65
2022-10-10T22:16:24.982Z,460.15
2022-10-10T22:19:12.981Z,452.50
2022-10-10T22:22:00.864Z,452.38
2022-10-10T22:24:48.763Z,452.38
2022-10-10T22:27:38.273Z,459.20
2022-10-10T22:30:26.247Z,436.00
2022-10-10T22:33:14.278Z,486.42
2022-10-10T22:36:02.783Z,467.20
2022-10-10T22:38:50.951Z,483.58
2022-10-10T22:41:38.890Z,458.52
2022-10-10T22:44:28.206Z,473.75
2022-10-10T22:47:16.133Z,451.33
2022-10-10T22:50:04.311Z,445.38
2022-10-10T22:52:52.229Z,487.25
2022-10-10T22:55:40.175Z,475.70
2022-10-10T22:58:28.307Z,454.08
2022-10-10T23:01:19.553Z,462.95
2022-10-10T23:04:13.138Z,497.77
2022-10-10T23:07:01.059Z,472.48
2022-10-10T23:09:49.495Z,465.13
2022-10-10T23:12:37.784Z,476.30
2022-10-10T23:15:25.677Z,485.67
2022-10-10T23:18:15.164Z,479.85
2022-10-10T23:21:03.126Z,481.60
2022-10-10T23:23:51.200Z,487.90
2022-10-10T23:26:39.113Z,467.90
2022-10-10T23:29:27.074Z,476.77
2022-10-10T23:32:15.041Z,461.00
2022-10-10T23:35:04.547Z,466.73
2022-10-10T23:37:52.461Z,479.48
2022-10-10T23:40:40.401Z,462.60
2022-10-10T23:43:28.571Z,466.17
2022-10-10T23:46:16.521Z,474.95
2022-10-10T23:49:04.431Z,466.45
2022-10-10T23:51:53.718Z,475.98
2022-10-10T23:54:41.644Z,457.00
2022-10-10T23:57:29.723Z,479.25
